createdAt,value
2023-04-29T00:00:50.466Z,29.88
2023-04-29T00:01:50.503Z,30.08
2023-04-29T00:02:50.656Z,29.98
2023-04-29T00:03:50.645Z,29.98
2023-04-29T00:04:50.702Z,29.69
2023-04-29T00:05:50.821Z,29.80
2023-04-29T00:06:50.467Z,29.98
2023-04-29T00:07:50.500Z,29.79
2023-04-29T00:08:50.466Z,29.79
2023-04-29T00:09:50.741Z,29.69
2023-04-29T00:10:50.464Z,29.69
2023-04-29T00:11:50.484Z,29.98
2023-04-29T00:12:50.465Z,29.69
2023-04-29T00:13:50.484Z,29.69
2023-04-29T00:14:50.464Z,29.50
2023-04-29T00:15:50.481Z,29.69
2023-04-29T00:16:50.485Z,29.79
2023-04-29T00:17:50.520Z,29.79
2023-04-29T00:18:50.463Z,29.69
2023-04-29T00:19:50.588Z,29.40
2023-04-29T00:20:50.464Z,29.98
2023-04-29T00:21:50.473Z,29.50
2023-04-29T00:22:50.469Z,29.71
2023-04-29T00:23:50.495Z,29.79
2023-04-29T00:24:50.464Z,29.69
2023-04-29T00:25:50.479Z,30.08
2023-04-29T00:26:50.462Z,30.08
2023-04-29T00:27:50.467Z,29.69
2023-04-29T00:28:50.463Z,29.88
2023-04-29T00:29:50.717Z,29.69
2023-04-29T00:30:50.553Z,29.98
2023-04-29T00:31:50.470Z,29.69
2023-04-29T00:32:50.468Z,29.69
2023-04-29T00:33:50.469Z,29.69
2023-04-29T00:34:50.463Z,29.79
2023-04-29T00:35:50.474Z,29.69
2023-04-29T00:36:50.468Z,29.69
2023-04-29T00:37:50.469Z,29.79
2023-04-29T00:38:50.464Z,29.79
2023-04-29T00:39:50.579Z,29.69
2023-04-29T00:40:50.458Z,29.69
2023-04-29T00:41:50.477Z,29.69
2023-04-29T00:42:50.459Z,29.60
2023-04-29T00:43:50.470Z,29.50
2023-04-29T00:44:50.461Z,29.60
2023-04-29T00:45:50.523Z,29.40
2023-04-29T00:46:50.458Z,29.60
2023-04-29T00:47:50.523Z,29.50
2023-04-29T00:48:50.467Z,29.69
2023-04-29T00:49:50.581Z,29.50
2023-04-29T00:50:50.457Z,29.60
2023-04-29T00:51:50.468Z,29.60
2023-04-29T00:52:50.458Z,29.60
2023-04-29T00:53:50.463Z,29.50
2023-04-29T00:54:50.465Z,29.50
2023-04-29T00:55:50.486Z,29.50
2023-04-29T00:56:50.458Z,29.51
2023-04-29T00:57:50.464Z,29.60
2023-04-29T00:58:50.462Z,29.69
2023-04-29T00:59:50.914Z,29.60
2023-04-29T01:00:50.456Z,29.50
2023-04-29T01:01:50.472Z,29.50
2023-04-29T01:02:50.528Z,29.60
2023-04-29T01:03:50.737Z,29.50
2023-04-29T01:04:50.612Z,29.50
2023-04-29T01:05:50.464Z,29.60
2023-04-29T01:06:50.479Z,29.60
2023-04-29T01:07:50.463Z,29.60
2023-04-29T01:08:50.456Z,29.50
2023-04-29T01:09:50.785Z,29.50
2023-04-29T01:10:50.464Z,29.50
2023-04-29T01:11:50.491Z,29.60
2023-04-29T01:12:50.455Z,29.40
2023-04-29T01:13:51.965Z,29.60
2023-04-29T01:14:50.454Z,29.60
2023-04-29T01:15:50.488Z,29.60
2023-04-29T01:16:50.455Z,29.60
2023-04-29T01:17:50.483Z,29.40
2023-04-29T01:18:50.456Z,29.40
2023-04-29T01:19:50.653Z,29.41
2023-04-29T01:20:50.454Z,29.50
2023-04-29T01:21:50.470Z,29.60
2023-04-29T01:22:50.455Z,29.50
2023-04-29T01:23:50.467Z,29.50
2023-04-29T01:24:50.455Z,29.50
2023-04-29T01:25:50.486Z,29.50
2023-04-29T01:26:50.471Z,29.40
2023-04-29T01:27:50.493Z,29.30
2023-04-29T01:28:50.468Z,29.40
2023-04-29T01:29:50.693Z,29.40
2023-04-29T01:30:50.451Z,29.40
2023-04-29T01:31:50.587Z,29.50
2023-04-29T01:32:50.469Z,29.69
2023-04-29T01:33:50.462Z,29.79
2023-04-29T01:34:50.457Z,29.40
2023-04-29T01:35:50.461Z,29.69
2023-04-29T01:36:50.461Z,29.60
2023-04-29T01:37:50.465Z,29.50
2023-04-29T01:38:50.453Z,29.60
2023-04-29T01:39:50.618Z,29.40
2023-04-29T01:40:50.452Z,29.50
2023-04-29T01:41:50.460Z,29.11
2023-04-29T01:42:50.452Z,29.60
2023-04-29T01:43:50.482Z,29.60
2023-04-29T01:44:50.452Z,29.69
2023-04-29T01:45:50.463Z,29.79
2023-04-29T01:46:50.506Z,29.40
2023-04-29T01:47:50.520Z,29.60
2023-04-29T01:48:50.451Z,29.79
2023-04-29T01:49:50.719Z,29.79
2023-04-29T01:50:50.450Z,29.50
2023-04-29T01:51:50.459Z,29.69
2023-04-29T01:52:50.455Z,29.69
2023-04-29T01:53:50.463Z,29.60
2023-04-29T01:54:50.451Z,29.30
2023-04-29T01:55:50.468Z,29.69
2023-04-29T01:56:50.448Z,29.71
2023-04-29T01:57:50.458Z,29.69
2023-04-29T01:58:50.461Z,29.60
2023-04-29T01:59:50.558Z,29.79
2023-04-29T02:00:50.480Z,29.79
2023-04-29T02:01:50.456Z,29.69
2023-04-29T02:02:50.518Z,29.79
2023-04-29T02:03:50.649Z,29.69
2023-04-29T02:04:50.503Z,29.79
2023-04-29T02:05:50.494Z,29.50
2023-04-29T02:06:50.448Z,29.79
2023-04-29T02:07:50.465Z,29.60
2023-04-29T02:08:50.448Z,29.79
2023-04-29T02:09:50.694Z,29.69
2023-04-29T02:10:50.450Z,29.79
2023-04-29T02:11:50.457Z,29.79
2023-04-29T02:12:50.452Z,29.50
2023-04-29T02:13:50.459Z,29.79
2023-04-29T02:14:50.449Z,29.69
2023-04-29T02:15:50.480Z,29.30
2023-04-29T02:16:50.725Z,29.50
2023-04-29T02:17:50.507Z,29.71
2023-04-29T02:18:50.451Z,29.79
2023-04-29T02:19:50.635Z,29.79
2023-04-29T02:20:50.451Z,29.69
2023-04-29T02:21:50.460Z,29.79
2023-04-29T02:22:50.481Z,29.69
2023-04-29T02:23:50.462Z,29.79
2023-04-29T02:24:50.448Z,29.50
2023-04-29T02:25:50.473Z,29.69
2023-04-29T02:26:50.449Z,29.69
2023-04-29T02:27:50.460Z,29.30
2023-04-29T02:28:50.452Z,29.50
2023-04-29T02:29:50.596Z,29.50
2023-04-29T02:30:50.450Z,29.50
2023-04-29T02:31:50.490Z,29.79
2023-04-29T02:32:50.514Z,29.69
2023-04-29T02:33:50.470Z,29.69
2023-04-29T02:34:50.453Z,29.40
2023-04-29T02:35:50.456Z,29.50
2023-04-29T02:36:50.450Z,29.60
2023-04-29T02:37:50.454Z,29.60
2023-04-29T02:38:50.450Z,29.69
2023-04-29T02:39:50.688Z,29.30
2023-04-29T02:40:50.463Z,29.50
2023-04-29T02:41:50.456Z,29.60
2023-04-29T02:42:50.455Z,29.60
2023-04-29T02:43:50.465Z,29.60
2023-04-29T02:44:50.450Z,29.60
2023-04-29T02:45:50.515Z,29.40
2023-04-29T02:46:50.447Z,29.40
2023-04-29T02:47:50.503Z,29.21
2023-04-29T02:48:50.449Z,29.21
2023-04-29T02:49:50.691Z,29.30
2023-04-29T02:50:50.445Z,29.40
2023-04-29T02:51:50.453Z,29.21
2023-04-29T02:52:50.449Z,29.11
2023-04-29T02:53:50.454Z,29.21
2023-04-29T02:54:50.446Z,29.30
2023-04-29T02:55:50.459Z,29.30
2023-04-29T02:56:50.450Z,29.41
2023-04-29T02:57:50.458Z,29.50
2023-04-29T02:58:50.464Z,29.40
2023-04-29T02:59:50.618Z,29.21
2023-04-29T03:00:50.491Z,29.40
2023-04-29T03:01:50.456Z,29.40
2023-04-29T03:02:50.525Z,29.40
2023-04-29T03:03:50.660Z,29.40
2023-04-29T03:04:50.448Z,29.50
2023-04-29T03:05:50.457Z,29.11
2023-04-29T03:06:50.445Z,29.21
2023-04-29T03:07:50.453Z,29.30
2023-04-29T03:08:50.456Z,29.22
2023-04-29T03:09:50.637Z,29.21
2023-04-29T03:10:50.454Z,29.01
2023-04-29T03:11:50.448Z,29.30
2023-04-29T03:12:50.452Z,29.40
2023-04-29T03:13:50.447Z,29.40
2023-04-29T03:14:50.453Z,29.40
2023-04-29T03:15:50.445Z,29.40
2023-04-29T03:16:50.482Z,29.21
2023-04-29T03:17:50.494Z,29.40
2023-04-29T03:18:50.452Z,29.30
2023-04-29T03:19:50.531Z,29.40
2023-04-29T03:20:50.451Z,29.30
2023-04-29T03:21:52.199Z,29.11
2023-04-29T03:22:50.445Z,29.30
2023-04-29T03:23:50.440Z,29.30
2023-04-29T03:24:50.451Z,29.21
2023-04-29T03:25:50.462Z,29.11
2023-04-29T03:26:50.452Z,29.11
2023-04-29T03:27:50.439Z,29.01
2023-04-29T03:28:50.452Z,29.11
2023-04-29T03:29:50.677Z,29.21
2023-04-29T03:30:50.449Z,29.40
2023-04-29T03:31:50.517Z,29.11
2023-04-29T03:32:50.496Z,29.11
2023-04-29T03:33:50.438Z,29.30
2023-04-29T03:34:50.446Z,29.30
2023-04-29T03:35:50.459Z,29.11
2023-04-29T03:36:50.442Z,29.40
2023-04-29T03:37:50.434Z,29.30
2023-04-29T03:38:50.441Z,29.21
2023-04-29T03:39:50.712Z,29.11
2023-04-29T03:40:50.439Z,29.11
2023-04-29T03:41:50.438Z,29.21
2023-04-29T03:42:50.447Z,29.21
2023-04-29T03:43:50.433Z,29.21
2023-04-29T03:44:50.441Z,29.21
2023-04-29T03:45:50.510Z,29.21
2023-04-29T03:46:50.440Z,29.21
2023-04-29T03:47:50.462Z,29.21
2023-04-29T03:48:50.438Z,29.21
2023-04-29T03:49:50.743Z,29.21
2023-04-29T03:50:50.449Z,29.21
2023-04-29T03:51:50.455Z,29.30
2023-04-29T03:52:50.447Z,29.21
2023-04-29T03:53:50.433Z,29.21
2023-04-29T03:54:50.451Z,29.30
2023-04-29T03:55:50.433Z,29.30
2023-04-29T03:56:50.441Z,29.11
2023-04-29T03:57:50.429Z,29.11
2023-04-29T03:58:50.447Z,29.30
2023-04-29T03:59:50.781Z,29.30
2023-04-29T04:00:50.436Z,29.21
2023-04-29T04:01:50.479Z,29.32
2023-04-29T04:02:50.503Z,29.30
2023-04-29T04:03:50.548Z,29.30
2023-04-29T04:04:50.590Z,29.30
2023-04-29T04:05:50.430Z,29.21
2023-04-29T04:06:50.438Z,29.30
2023-04-29T04:07:50.456Z,29.22
2023-04-29T04:08:50.432Z,29.40
2023-04-29T04:09:50.591Z,29.30
2023-04-29T04:10:50.444Z,29.11
2023-04-29T04:11:50.424Z,29.11
2023-04-29T04:12:50.434Z,29.40
2023-04-29T04:13:50.425Z,29.50
2023-04-29T04:14:50.433Z,29.69
2023-04-29T04:15:50.468Z,29.69
2023-04-29T04:16:50.431Z,29.69
2023-04-29T04:17:50.507Z,29.79
2023-04-29T04:18:50.431Z,29.79
2023-04-29T04:19:50.626Z,29.80
2023-04-29T04:20:50.440Z,29.69
2023-04-29T04:21:50.421Z,29.30
2023-04-29T04:22:50.439Z,29.50
2023-04-29T04:23:50.447Z,29.50
2023-04-29T04:24:50.431Z,29.51
2023-04-29T04:25:50.423Z,29.61
2023-04-29T04:26:50.434Z,29.79
2023-04-29T04:27:50.423Z,29.79
2023-04-29T04:28:50.445Z,29.50
2023-04-29T04:29:50.571Z,29.79
2023-04-29T04:30:50.439Z,30.00
2023-04-29T04:31:50.441Z,30.08
2023-04-29T04:32:50.503Z,29.98
2023-04-29T04:33:50.425Z,29.88
2023-04-29T04:34:50.430Z,29.69
2023-04-29T04:35:50.425Z,29.79
2023-04-29T04:36:50.442Z,29.69
2023-04-29T04:37:50.461Z,29.50
2023-04-29T04:38:50.449Z,29.69
2023-04-29T04:39:50.674Z,29.88
2023-04-29T04:40:50.434Z,29.88
2023-04-29T04:41:50.436Z,29.88
2023-04-29T04:42:50.480Z,30.18
2023-04-29T04:43:50.432Z,29.98
2023-04-29T04:44:50.433Z,29.98
2023-04-29T04:45:50.460Z,29.69
2023-04-29T04:46:50.435Z,30.08
2023-04-29T04:47:50.502Z,29.69
2023-04-29T04:48:50.440Z,29.69
2023-04-29T04:49:50.488Z,30.18
2023-04-29T04:50:50.432Z,30.18
2023-04-29T04:51:50.427Z,30.08
2023-04-29T04:52:50.433Z,30.27
2023-04-29T04:53:50.426Z,30.18
2023-04-29T04:54:50.433Z,29.98
2023-04-29T04:55:50.445Z,30.18
2023-04-29T04:56:50.434Z,30.27
2023-04-29T04:57:50.425Z,30.27
2023-04-29T04:58:50.431Z,30.18
2023-04-29T04:59:50.613Z,30.18
2023-04-29T05:00:50.454Z,29.88
2023-04-29T05:01:50.421Z,29.98
2023-04-29T05:02:50.620Z,30.18
2023-04-29T05:03:50.508Z,30.18
2023-04-29T05:04:50.432Z,30.27
2023-04-29T05:05:50.422Z,30.47
2023-04-29T05:06:50.448Z,30.18
2023-04-29T05:07:50.417Z,30.37
2023-04-29T05:08:50.426Z,30.37
2023-04-29T05:09:50.615Z,30.45
2023-04-29T05:10:50.433Z,30.26
2023-04-29T05:11:50.440Z,30.45
2023-04-29T05:12:50.426Z,30.47
2023-04-29T05:13:50.417Z,30.76
2023-04-29T05:14:50.424Z,30.65
2023-04-29T05:15:50.417Z,30.94
2023-04-29T05:16:50.466Z,30.65
2023-04-29T05:17:50.435Z,30.76
2023-04-29T05:18:50.431Z,30.45
2023-04-29T05:19:50.674Z,30.47
2023-04-29T05:20:50.424Z,30.57
2023-04-29T05:21:50.417Z,30.55
2023-04-29T05:22:50.419Z,30.55
2023-04-29T05:23:50.416Z,30.37
2023-04-29T05:24:50.421Z,30.47
2023-04-29T05:25:50.416Z,30.45
2023-04-29T05:26:50.420Z,30.47
2023-04-29T05:27:50.437Z,30.37
2023-04-29T05:28:50.420Z,30.55
2023-04-29T05:29:50.517Z,30.35
2023-04-29T05:30:50.469Z,30.47
2023-04-29T05:31:50.424Z,30.16
2023-04-29T05:32:50.472Z,30.26
2023-04-29T05:33:50.414Z,29.98
2023-04-29T05:34:50.427Z,30.37
2023-04-29T05:35:50.409Z,30.16
2023-04-29T05:36:50.416Z,29.98
2023-04-29T05:37:50.409Z,30.27
2023-04-29T05:38:50.415Z,30.27
2023-04-29T05:39:50.592Z,30.27
2023-04-29T05:40:50.421Z,30.27
2023-04-29T05:41:50.409Z,30.37
2023-04-29T05:42:50.431Z,29.88
2023-04-29T05:43:50.431Z,30.27
2023-04-29T05:44:50.416Z,30.27
2023-04-29T05:45:50.436Z,30.37
2023-04-29T05:46:50.417Z,30.18
2023-04-29T05:47:50.442Z,30.27
2023-04-29T05:48:50.413Z,30.37
2023-04-29T05:49:50.755Z,30.37
2023-04-29T05:50:50.414Z,30.27
2023-04-29T05:51:50.412Z,30.27
2023-04-29T05:52:50.417Z,30.37
2023-04-29T05:53:50.410Z,30.08
2023-04-29T05:54:50.412Z,30.27
2023-04-29T05:55:51.230Z,30.08
2023-04-29T05:56:50.421Z,29.98
2023-04-29T05:57:50.403Z,30.37
2023-04-29T05:58:50.411Z,30.37
2023-04-29T05:59:50.590Z,30.18
2023-04-29T06:00:50.413Z,30.37
2023-04-29T06:01:50.401Z,30.27
2023-04-29T06:02:58.054Z,30.27
2023-04-29T06:03:50.644Z,30.27
2023-04-29T06:04:50.635Z,30.27
2023-04-29T06:05:50.778Z,30.37
2023-04-29T06:06:50.413Z,30.27
2023-04-29T06:07:50.408Z,30.27
2023-04-29T06:08:50.416Z,30.47
2023-04-29T06:09:50.670Z,30.27
2023-04-29T06:10:50.415Z,30.18
2023-04-29T06:11:50.404Z,30.27
2023-04-29T06:12:50.410Z,30.18
2023-04-29T06:13:50.415Z,30.18
2023-04-29T06:14:50.410Z,30.27
2023-04-29T06:15:50.439Z,30.27
2023-04-29T06:16:50.407Z,30.27
2023-04-29T06:17:50.453Z,30.27
2023-04-29T06:18:50.416Z,30.27
2023-04-29T06:19:50.644Z,30.18
2023-04-29T06:20:50.412Z,30.08
2023-04-29T06:21:50.400Z,30.08
2023-04-29T06:22:50.405Z,30.27
2023-04-29T06:23:50.400Z,30.18
2023-04-29T06:24:50.415Z,30.27
2023-04-29T06:25:51.675Z,30.18
2023-04-29T06:26:50.408Z,30.27
2023-04-29T06:27:50.408Z,30.18
2023-04-29T06:28:50.407Z,30.27
2023-04-29T06:29:50.419Z,30.27
2023-04-29T06:30:50.448Z,30.18
2023-04-29T06:31:50.438Z,30.27
2023-04-29T06:32:50.448Z,30.08
2023-04-29T06:33:50.399Z,30.18
2023-04-29T06:34:50.408Z,30.18
2023-04-29T06:35:50.403Z,29.98
2023-04-29T06:36:50.412Z,30.08
2023-04-29T06:37:50.403Z,30.18
2023-04-29T06:38:50.404Z,30.27
2023-04-29T06:39:50.446Z,30.18
2023-04-29T06:40:50.409Z,30.18
2023-04-29T06:41:50.401Z,30.18
2023-04-29T06:42:50.400Z,30.08
2023-04-29T06:43:50.396Z,30.18
2023-04-29T06:44:50.401Z,30.27
2023-04-29T06:45:50.397Z,30.27
2023-04-29T06:46:50.434Z,30.08
2023-04-29T06:47:50.560Z,30.27
2023-04-29T06:48:50.401Z,30.08
2023-04-29T06:49:50.402Z,30.47
2023-04-29T06:50:50.401Z,30.27
2023-04-29T06:51:50.395Z,30.37
2023-04-29T06:52:50.401Z,30.27
2023-04-29T06:53:50.395Z,30.18
2023-04-29T06:54:50.400Z,30.18
2023-04-29T06:55:50.391Z,30.27
2023-04-29T06:56:50.410Z,30.27
2023-04-29T06:57:50.392Z,30.37
2023-04-29T06:58:50.400Z,30.27
2023-04-29T06:59:50.431Z,30.18
2023-04-29T07:00:50.455Z,30.27
2023-04-29T07:01:50.465Z,30.27
2023-04-29T07:02:50.494Z,30.27
2023-04-29T07:03:50.620Z,30.27
2023-04-29T07:04:50.552Z,29.98
2023-04-29T07:05:50.395Z,30.27
2023-04-29T07:06:50.401Z,30.27
2023-04-29T07:07:50.395Z,30.27
2023-04-29T07:08:50.410Z,30.27
2023-04-29T07:09:50.391Z,30.27
2023-04-29T07:10:50.397Z,30.18
2023-04-29T07:11:50.399Z,30.47
2023-04-29T07:12:50.396Z,30.47
2023-04-29T07:13:50.392Z,30.18
2023-04-29T07:14:50.399Z,30.27
2023-04-29T07:15:50.391Z,30.27
2023-04-29T07:16:50.450Z,30.47
2023-04-29T07:17:50.432Z,30.47
2023-04-29T07:18:50.401Z,30.47
2023-04-29T07:19:50.632Z,30.57
2023-04-29T07:20:50.406Z,30.37
2023-04-29T07:21:50.392Z,30.27
2023-04-29T07:22:50.397Z,30.57
2023-04-29T07:23:50.390Z,30.66
2023-04-29T07:24:50.598Z,30.47
2023-04-29T07:25:50.404Z,30.47
2023-04-29T07:26:50.388Z,30.66
2023-04-29T07:27:50.396Z,30.47
2023-04-29T07:28:50.391Z,30.37
2023-04-29T07:29:50.398Z,31.05
2023-04-29T07:30:50.430Z,30.95
2023-04-29T07:31:50.398Z,30.95
2023-04-29T07:32:50.394Z,30.95
2023-04-29T07:33:50.404Z,30.85
2023-04-29T07:34:50.409Z,30.95
2023-04-29T07:35:50.416Z,30.95
2023-04-29T07:36:50.386Z,30.85
2023-04-29T07:37:50.397Z,30.85
2023-04-29T07:38:50.400Z,30.95
2023-04-29T07:39:50.394Z,30.95
2023-04-29T07:40:50.383Z,30.85
2023-04-29T07:41:50.401Z,30.95
2023-04-29T07:42:50.386Z,30.85
2023-04-29T07:43:50.413Z,30.85
2023-04-29T07:44:50.492Z,30.85
2023-04-29T07:45:50.479Z,30.95
2023-04-29T07:46:50.383Z,30.95
2023-04-29T07:47:50.492Z,30.85
2023-04-29T07:48:50.385Z,30.85
2023-04-29T07:49:50.395Z,30.95
2023-04-29T07:50:50.390Z,30.95
2023-04-29T07:51:50.410Z,30.95
2023-04-29T07:52:50.382Z,30.85
2023-04-29T07:53:50.390Z,30.95
2023-04-29T07:54:50.654Z,30.85
2023-04-29T07:55:50.392Z,30.95
2023-04-29T07:56:50.394Z,30.76
2023-04-29T07:57:50.391Z,30.85
2023-04-29T07:58:50.376Z,30.76
2023-04-29T07:59:50.386Z,30.76
2023-04-29T08:00:50.396Z,30.76
2023-04-29T08:01:50.391Z,30.85
2023-04-29T08:02:50.452Z,30.66
2023-04-29T08:03:50.519Z,30.66
2023-04-29T08:04:50.808Z,30.57
2023-04-29T08:05:50.512Z,30.66
2023-04-29T08:06:50.385Z,30.66
2023-04-29T08:07:50.408Z,31.24
2023-04-29T08:08:50.379Z,31.05
2023-04-29T08:09:50.383Z,30.95
2023-04-29T08:10:50.383Z,31.15
2023-04-29T08:11:50.381Z,31.15
2023-04-29T08:12:50.379Z,31.05
2023-04-29T08:13:50.383Z,31.05
2023-04-29T08:14:50.451Z,31.15
2023-04-29T08:15:50.441Z,31.15
2023-04-29T08:16:50.375Z,31.15
2023-04-29T08:17:50.439Z,31.05
2023-04-29T08:18:50.375Z,31.05
2023-04-29T08:19:50.382Z,31.05
2023-04-29T08:20:50.374Z,30.95
2023-04-29T08:21:50.382Z,31.05
2023-04-29T08:22:50.373Z,31.24
2023-04-29T08:23:50.410Z,31.05
2023-04-29T08:24:50.487Z,31.05
2023-04-29T08:25:50.392Z,31.05
2023-04-29T08:26:50.377Z,31.15
2023-04-29T08:27:50.381Z,31.05
2023-04-29T08:28:50.376Z,31.05
2023-04-29T08:29:50.381Z,31.05
2023-04-29T08:30:50.375Z,31.05
2023-04-29T08:31:50.515Z,31.15
2023-04-29T08:32:50.405Z,31.05
2023-04-29T08:33:50.386Z,31.24
2023-04-29T08:34:50.442Z,31.34
2023-04-29T08:35:50.385Z,31.24
2023-04-29T08:36:50.375Z,31.24
2023-04-29T08:37:50.377Z,31.24
2023-04-29T08:38:50.376Z,31.26
2023-04-29T08:39:50.413Z,31.24
2023-04-29T08:40:50.372Z,31.15
2023-04-29T08:41:50.382Z,30.95
2023-04-29T08:42:50.373Z,31.24
2023-04-29T08:43:50.644Z,31.24
2023-04-29T08:44:50.474Z,31.15
2023-04-29T08:45:50.429Z,31.15
2023-04-29T08:46:50.372Z,31.15
2023-04-29T08:47:50.458Z,31.24
2023-04-29T08:48:50.438Z,31.45
2023-04-29T08:49:50.385Z,31.15
2023-04-29T08:50:50.369Z,31.15
2023-04-29T08:51:50.388Z,31.24
2023-04-29T08:52:50.373Z,31.24
2023-04-29T08:53:50.385Z,31.24
2023-04-29T08:54:50.477Z,31.24
2023-04-29T08:55:50.445Z,31.24
2023-04-29T08:56:50.404Z,31.24
2023-04-29T08:57:50.411Z,31.24
2023-04-29T08:58:50.369Z,31.26
2023-04-29T08:59:50.378Z,31.24
2023-04-29T09:00:50.408Z,31.35
2023-04-29T09:01:50.394Z,31.16
2023-04-29T09:02:50.489Z,31.26
2023-04-29T09:03:50.664Z,31.26
2023-04-29T09:04:50.431Z,31.26
2023-04-29T09:05:50.381Z,31.26
2023-04-29T09:06:50.377Z,31.26
2023-04-29T09:07:50.382Z,31.26
2023-04-29T09:08:50.394Z,31.24
2023-04-29T09:09:50.374Z,31.35
2023-04-29T09:10:50.368Z,31.35
2023-04-29T09:11:50.403Z,31.26
2023-04-29T09:12:50.366Z,31.16
2023-04-29T09:13:50.376Z,31.45
2023-04-29T09:14:50.533Z,31.44
2023-04-29T09:15:50.378Z,31.35
2023-04-29T09:16:50.511Z,31.44
2023-04-29T09:17:50.404Z,31.55
2023-04-29T09:18:50.437Z,31.34
2023-04-29T09:19:50.374Z,31.26
2023-04-29T09:20:50.368Z,31.26
2023-04-29T09:21:50.385Z,31.44
2023-04-29T09:22:50.365Z,31.34
2023-04-29T09:23:50.390Z,31.34
2023-04-29T09:24:50.593Z,31.45
2023-04-29T09:25:50.384Z,31.34
2023-04-29T09:26:51.702Z,31.16
2023-04-29T09:27:50.400Z,31.35
2023-04-29T09:28:50.370Z,31.35
2023-04-29T09:29:50.386Z,31.45
2023-04-29T09:30:50.381Z,31.45
2023-04-29T09:31:50.393Z,31.26
2023-04-29T09:32:50.416Z,31.45
2023-04-29T09:33:50.388Z,31.45
2023-04-29T09:34:50.521Z,31.55
2023-04-29T09:35:50.386Z,31.44
2023-04-29T09:36:50.383Z,31.34
2023-04-29T09:37:50.378Z,31.45
2023-04-29T09:38:50.366Z,31.45
2023-04-29T09:39:50.377Z,31.16
2023-04-29T09:40:58.225Z,31.26
2023-04-29T09:41:50.379Z,31.26
2023-04-29T09:42:50.370Z,31.55
2023-04-29T09:43:50.404Z,31.45
2023-04-29T09:44:50.369Z,31.45
2023-04-29T09:45:50.421Z,31.45
2023-04-29T09:46:50.367Z,31.45
2023-04-29T09:47:50.438Z,31.35
2023-04-29T09:48:50.383Z,31.45
2023-04-29T09:49:50.383Z,31.35
2023-04-29T09:50:50.373Z,31.45
2023-04-29T09:51:50.375Z,31.26
2023-04-29T09:52:50.369Z,31.45
2023-04-29T09:53:50.374Z,31.07
2023-04-29T09:54:50.367Z,31.35
2023-04-29T09:55:50.374Z,31.45
2023-04-29T09:56:50.366Z,31.45
2023-04-29T09:57:50.374Z,31.55
2023-04-29T09:58:50.372Z,31.35
2023-04-29T09:59:50.396Z,31.35
2023-04-29T10:00:50.371Z,31.53
2023-04-29T10:01:50.431Z,31.35
2023-04-29T10:02:50.513Z,31.45
2023-04-29T10:03:50.501Z,31.26
2023-04-29T10:04:50.469Z,31.55
2023-04-29T10:05:50.379Z,31.26
2023-04-29T10:06:50.386Z,31.16
2023-04-29T10:07:50.372Z,31.16
2023-04-29T10:08:50.370Z,31.35
2023-04-29T10:09:50.384Z,31.55
2023-04-29T10:10:50.366Z,31.35
2023-04-29T10:11:50.372Z,31.35
2023-04-29T10:12:50.365Z,31.26
2023-04-29T10:13:50.379Z,31.16
2023-04-29T10:14:50.499Z,31.07
2023-04-29T10:15:50.448Z,31.26
2023-04-29T10:16:50.372Z,31.16
2023-04-29T10:17:50.370Z,31.35
2023-04-29T10:18:50.411Z,31.35
2023-04-29T10:19:50.370Z,31.45
2023-04-29T10:20:50.364Z,31.16
2023-04-29T10:21:50.369Z,31.24
2023-04-29T10:22:50.369Z,31.35
2023-04-29T10:23:50.373Z,31.35
2023-04-29T10:24:50.677Z,31.26
2023-04-29T10:25:50.385Z,31.35
2023-04-29T10:26:50.370Z,31.26
2023-04-29T10:27:50.372Z,31.34
2023-04-29T10:28:50.364Z,31.35
2023-04-29T10:29:50.371Z,31.26
2023-04-29T10:30:50.372Z,31.26
2023-04-29T10:31:50.548Z,31.26
2023-04-29T10:32:51.993Z,31.26
2023-04-29T10:33:50.371Z,31.26
2023-04-29T10:34:50.429Z,31.07
2023-04-29T10:35:50.369Z,31.26
2023-04-29T10:36:50.360Z,31.16
2023-04-29T10:37:50.413Z,31.45
2023-04-29T10:38:50.367Z,31.26
2023-04-29T10:39:50.391Z,31.16
2023-04-29T10:40:50.361Z,31.45
2023-04-29T10:41:50.368Z,31.26
2023-04-29T10:42:50.364Z,31.16
2023-04-29T10:43:50.370Z,31.16
2023-04-29T10:44:50.399Z,31.26
2023-04-29T10:45:50.365Z,31.16
2023-04-29T10:46:50.407Z,31.07
2023-04-29T10:47:50.617Z,31.16
2023-04-29T10:48:50.364Z,31.07
2023-04-29T10:49:50.370Z,31.07
2023-04-29T10:50:50.361Z,31.16
2023-04-29T10:51:50.368Z,31.07
2023-04-29T10:52:50.360Z,31.16
2023-04-29T10:53:50.368Z,31.07
2023-04-29T10:54:50.655Z,31.26
2023-04-29T10:55:50.370Z,31.16
2023-04-29T10:56:50.402Z,31.26
2023-04-29T10:57:50.366Z,31.16
2023-04-29T10:58:50.356Z,31.07
2023-04-29T10:59:50.367Z,31.07
2023-04-29T11:00:50.432Z,31.26
2023-04-29T11:01:50.368Z,31.07
2023-04-29T11:02:50.520Z,31.07
2023-04-29T11:03:50.552Z,31.07
2023-04-29T11:04:50.478Z,31.07
2023-04-29T11:05:50.366Z,31.07
2023-04-29T11:06:50.361Z,31.07
2023-04-29T11:07:50.375Z,31.16
2023-04-29T11:08:50.368Z,31.16
2023-04-29T11:09:50.379Z,31.16
2023-04-29T11:10:50.363Z,31.07
2023-04-29T11:11:50.372Z,31.16
2023-04-29T11:12:50.363Z,31.07
2023-04-29T11:13:50.367Z,31.07
2023-04-29T11:14:50.359Z,31.16
2023-04-29T11:15:50.368Z,31.07
2023-04-29T11:16:50.508Z,30.97
2023-04-29T11:17:50.401Z,31.07
2023-04-29T11:18:50.360Z,31.16
2023-04-29T11:19:50.390Z,31.16
2023-04-29T11:20:50.363Z,31.16
2023-04-29T11:21:50.372Z,31.16
2023-04-29T11:22:50.363Z,31.07
2023-04-29T11:23:50.368Z,31.07
2023-04-29T11:24:50.422Z,31.07
2023-04-29T11:25:50.374Z,31.16
2023-04-29T11:26:50.361Z,31.07
2023-04-29T11:27:50.367Z,31.26
2023-04-29T11:28:50.364Z,31.26
2023-04-29T11:29:50.368Z,31.07
2023-04-29T11:30:50.360Z,30.77
2023-04-29T11:31:50.444Z,31.07
2023-04-29T11:32:50.477Z,31.26
2023-04-29T11:33:50.367Z,31.26
2023-04-29T11:34:50.415Z,31.07
2023-04-29T11:35:50.457Z,31.26
2023-04-29T11:36:50.371Z,31.26
2023-04-29T11:37:50.372Z,31.07
2023-04-29T11:38:50.367Z,30.68
2023-04-29T11:39:50.372Z,30.58
2023-04-29T11:40:50.374Z,30.87
2023-04-29T11:41:52.518Z,30.87
2023-04-29T11:42:50.383Z,30.97
2023-04-29T11:43:50.365Z,30.97
2023-04-29T11:44:50.369Z,30.97
2023-04-29T11:45:50.402Z,30.97
2023-04-29T11:46:50.364Z,30.87
2023-04-29T11:47:51.249Z,30.87
2023-04-29T11:48:50.365Z,30.87
2023-04-29T11:49:50.362Z,30.97
2023-04-29T11:50:50.371Z,30.77
2023-04-29T11:51:50.463Z,31.07
2023-04-29T11:52:50.369Z,30.97
2023-04-29T11:53:50.367Z,30.87
2023-04-29T11:54:50.365Z,30.68
2023-04-29T11:55:50.363Z,30.48
2023-04-29T11:56:50.369Z,30.29
2023-04-29T11:57:50.368Z,30.29
2023-04-29T11:58:50.365Z,30.48
2023-04-29T11:59:50.356Z,30.27
2023-04-29T12:00:50.368Z,30.29
2023-04-29T12:01:50.362Z,30.19
2023-04-29T12:02:50.472Z,30.19
2023-04-29T12:03:50.525Z,30.19
2023-04-29T12:04:50.560Z,30.29
2023-04-29T12:05:50.495Z,30.29
2023-04-29T12:06:50.375Z,30.19
2023-04-29T12:07:50.377Z,30.19
2023-04-29T12:08:50.374Z,30.29
2023-04-29T12:09:50.357Z,30.19
2023-04-29T12:10:50.373Z,30.19
2023-04-29T12:11:50.356Z,30.19
2023-04-29T12:12:50.371Z,30.19
2023-04-29T12:13:50.358Z,30.29
2023-04-29T12:14:50.364Z,30.09
2023-04-29T12:15:50.387Z,30.09
2023-04-29T12:16:50.367Z,30.29
2023-04-29T12:17:50.392Z,30.19
2023-04-29T12:18:50.371Z,30.09
2023-04-29T12:19:50.359Z,29.80
2023-04-29T12:20:50.370Z,30.29
2023-04-29T12:21:50.371Z,29.80
2023-04-29T12:22:50.364Z,30.00
2023-04-29T12:23:50.382Z,29.80
2023-04-29T12:24:50.370Z,30.00
2023-04-29T12:25:50.357Z,29.61
2023-04-29T12:26:50.364Z,29.90
2023-04-29T12:27:50.366Z,29.71
2023-04-29T12:28:50.385Z,29.71
2023-04-29T12:29:50.356Z,29.90
2023-04-29T12:30:50.369Z,29.90
2023-04-29T12:31:50.410Z,29.71
2023-04-29T12:32:50.401Z,30.00
2023-04-29T12:33:50.364Z,29.90
2023-04-29T12:34:50.363Z,30.00
2023-04-29T12:35:50.361Z,30.00
2023-04-29T12:36:50.362Z,30.09
2023-04-29T12:37:50.359Z,30.09
2023-04-29T12:38:50.359Z,30.00
2023-04-29T12:39:50.384Z,29.71
2023-04-29T12:40:50.361Z,29.80
2023-04-29T12:41:50.356Z,29.71
2023-04-29T12:42:50.388Z,30.09
2023-04-29T12:43:50.355Z,29.90
2023-04-29T12:44:50.391Z,29.90
2023-04-29T12:45:50.354Z,30.09
2023-04-29T12:46:50.390Z,30.00
2023-04-29T12:47:50.386Z,30.09
2023-04-29T12:48:50.361Z,30.19
2023-04-29T12:49:50.353Z,30.19
2023-04-29T12:50:50.391Z,30.19
2023-04-29T12:51:50.361Z,30.19
2023-04-29T12:52:50.365Z,30.29